M I D A S
Marine Information and Data Acquisition System
Tripno 1308 of the Zeeleeuw from 2007-05-22 11:38:09 to 2007-05-22 13:01:26
Back to CruiseResearch ActivitiesStationsMapUnderway DataData graphs

EquipmentUnitsComment
TimeDGPSUTC
LatitudeDGPSDM.mWGS84
LongitudeDGPSDM.mWGS84
HeadingGyrodeg 
SOGDGPSknotsSpeed over ground
COGDGPSdegCourse over ground
DepthEcho soundermeters200 kHz
Missing or incorrect values are displayed as -999
Navigation data collected by the RV Zeeleeuw from 2007-05-22 07:30:53 to 2007-05-22 13:35:04
Time Latitude Longitude Heading SOG COG Depth
2007-05-22 07:31:58 51°13.613 2°56.05 116.3 4 295 -999
2007-05-22 07:32:58 51°13.651 2°55.927 121.4 5.5 298 -999
2007-05-22 07:33:58 51°13.683 2°55.821 112.8 3.7 291 -999
2007-05-22 07:34:58 51°13.695 2°55.742 96.5 2.7 276 4.8
2007-05-22 07:35:58 51°13.698 2°55.71 65.4 1 45 -999
2007-05-22 07:36:58 51°13.731 2°55.725 1.4 2.4 355 -999
2007-05-22 07:37:58 51°13.816 2°55.661 334.6 9.2 332 10.7
2007-05-22 07:38:58 51°13.964 2°55.542 339.4 9.7 335 11.8
2007-05-22 07:39:58 51°14.085 2°55.454 340.9 6.7 338 -999
2007-05-22 07:40:58 51°14.195 2°55.376 334.6 9 328 -999
2007-05-22 07:41:58 51°14.324 2°55.179 312 11.6 305 11.6
2007-05-22 07:42:58 51°14.41 2°54.89 295.7 12.5 287 11.4
2007-05-22 07:43:58 51°14.452 2°54.543 284.3 13.7 280 11.5
2007-05-22 07:44:58 51°14.444 2°54.192 254 13.3 245 9.8
2007-05-22 07:45:58 51°14.325 2°53.886 238.3 13.7 236 9.9
2007-05-22 07:46:58 51°14.197 2°53.585 238.7 13.6 235 9.9
2007-05-22 07:47:58 51°14.071 2°53.284 240.5 13.7 236 10.1
2007-05-22 07:48:58 51°13.95 2°52.976 241.6 13.7 238 10.4
2007-05-22 07:49:58 51°13.828 2°52.669 240.5 13.7 237 10.4
2007-05-22 07:50:58 51°13.705 2°52.363 240.9 13.7 238 10.6
2007-05-22 07:51:58 51°13.585 2°52.055 241.8 13.6 238 10.6
2007-05-22 07:52:58 51°13.463 2°51.748 242.1 13.7 237 10.8
2007-05-22 07:53:58 51°13.341 2°51.44 241.9 13.8 237 10.7
2007-05-22 07:54:58 51°13.221 2°51.13 240.8 13.8 235 10.8
2007-05-22 07:55:58 51°13.099 2°50.821 241.9 13.7 237 10.7
2007-05-22 07:56:58 51°12.978 2°50.511 241.9 13.8 237 10.8
2007-05-22 07:57:58 51°12.856 2°50.199 240.8 13.8 239 10.8
2007-05-22 07:58:58 51°12.735 2°49.886 241.5 14 236 10.7
2007-05-22 07:59:58 51°12.614 2°49.571 241.7 13.9 239 10.7
2007-05-22 08:00:58 51°12.491 2°49.26 241.4 13.9 238 10.6
2007-05-22 08:01:58 51°12.369 2°48.945 241.8 14.1 238 10.5
2007-05-22 08:02:58 51°12.264 2°48.653 252.5 11.4 244 10.7
2007-05-22 08:03:58 51°12.156 2°48.602 150.2 5.7 143 10.3
2007-05-22 08:04:58 51°12.171 2°48.718 47.1 6.8 39 9.9
2007-05-22 08:05:58 51°12.3 2°48.887 47.4 11.5 42 10.4
2007-05-22 08:06:58 51°12.436 2°49.118 54.2 12.1 48 10.5
2007-05-22 08:07:58 51°12.573 2°49.357 53.2 12.3 48 10.8
2007-05-22 08:08:58 51°12.709 2°49.599 53.1 12.2 48 11.2
2007-05-22 08:09:58 51°12.843 2°49.841 52.9 12.2 49 11.4
2007-05-22 08:10:58 51°12.973 2°50.093 55.2 12.3 50 11.4
2007-05-22 08:11:58 51°13.103 2°50.344 55.3 12.2 51 11.3
2007-05-22 08:12:58 51°13.204 2°50.622 67.5 12.1 64 11.2
2007-05-22 08:13:58 51°13.303 2°50.902 64.5 12.1 61 11.1
2007-05-22 08:14:58 51°13.41 2°51.175 59.7 12.2 55 10.9
2007-05-22 08:15:58 51°13.522 2°51.444 60.2 12.2 58 10.8
2007-05-22 08:16:58 51°13.625 2°51.723 63.3 12.2 60 10.7
2007-05-22 08:17:58 51°13.724 2°52.004 64 12.2 61 10.6
2007-05-22 08:18:58 51°13.824 2°52.284 63.6 12.1 60 10.4
2007-05-22 08:19:58 51°13.925 2°52.565 63.2 12.1 60 10.4
2007-05-22 08:20:58 51°14.024 2°52.843 63.4 12 61 10.3
2007-05-22 08:21:58 51°14.124 2°53.121 63.2 12.1 60 10
2007-05-22 08:22:58 51°14.234 2°53.384 55 11.9 49 9.8
2007-05-22 08:23:58 51°14.397 2°53.563 33.3 12.1 26 9.6
2007-05-22 08:24:58 51°14.577 2°53.707 33.3 12.1 27 9.6
2007-05-22 08:25:58 51°14.764 2°53.84 25.3 12.3 17 10.2
2007-05-22 08:26:58 51°14.953 2°53.756 330.3 12.7 320 9.1
2007-05-22 08:27:58 51°15.052 2°53.458 289.1 13 273 9.4
2007-05-22 08:28:58 51°15.007 2°53.11 259 13.6 257 9.8
2007-05-22 08:29:58 51°14.963 2°52.755 261.2 13.7 257 10.8
2007-05-22 08:30:58 51°14.915 2°52.396 261.9 14 258 9.8
2007-05-22 08:31:58 51°14.865 2°52.035 261.6 14 257 10.1
2007-05-22 08:32:58 51°14.815 2°51.675 261.1 13.5 258 10.3
2007-05-22 08:33:58 51°14.775 2°51.386 262 9.4 257 10.6
2007-05-22 08:34:58 51°14.743 2°51.178 261.6 6.7 256 10.8
2007-05-22 08:35:58 51°14.724 2°51.034 269.3 4.6 261 11
2007-05-22 08:36:58 51°14.718 2°50.951 284.2 2.2 261 11
2007-05-22 08:37:58 51°14.708 2°50.916 283.9 1.1 229 11
2007-05-22 08:38:58 51°14.695 2°50.894 266.3 1.1 225 11
2007-05-22 08:39:58 51°14.682 2°50.873 249.5 1.2 225 10.9
2007-05-22 08:40:58 51°14.669 2°50.85 238 1.2 228 10.9
2007-05-22 08:41:58 51°14.654 2°50.826 230.5 1.3 225 10.8
2007-05-22 08:42:58 51°14.639 2°50.803 228.9 1.3 220 10.9
2007-05-22 08:43:58 51°14.617 2°50.766 231.6 2.8 229 10.8
2007-05-22 08:44:58 51°14.587 2°50.689 249.5 3.4 244 10.8
2007-05-22 08:45:58 51°14.565 2°50.617 256.4 2.8 244 10.8
2007-05-22 08:46:58 51°14.547 2°50.536 263.6 4.4 259 10.6
2007-05-22 08:47:58 51°14.555 2°50.437 311.3 3.7 293 11
2007-05-22 08:48:58 51°14.598 2°50.373 358.7 3.7 344 11.1
2007-05-22 08:49:58 51°14.646 2°50.404 56.7 2.8 58 11.4
2007-05-22 08:50:58 51°14.63 2°50.464 125.5 3 150 11.3
2007-05-22 08:51:58 51°14.57 2°50.46 187 4.4 199 11
2007-05-22 08:52:58 51°14.505 2°50.396 215 4.8 219 10.6
2007-05-22 08:53:58 51°14.453 2°50.302 231.3 4.6 228 10.4
2007-05-22 08:54:58 51°14.396 2°50.22 219.1 4.7 222 10.3
2007-05-22 08:55:58 51°14.34 2°50.135 223.1 4.6 225 10.2
2007-05-22 08:56:58 51°14.295 2°50.051 237.1 3.8 235 10.1
2007-05-22 08:57:58 51°14.266 2°49.969 253.2 3.3 244 9.9
2007-05-22 08:58:58 51°14.246 2°49.889 264.9 3.2 252 10.1
2007-05-22 08:59:58 51°14.231 2°49.809 268.5 3.1 253 10
2007-05-22 09:00:58 51°14.217 2°49.728 270.2 3.2 255 10.1
2007-05-22 09:01:58 51°14.204 2°49.647 272 3.2 256 10.2
2007-05-22 09:02:58 51°14.193 2°49.564 274.6 3.2 260 10.4
2007-05-22 09:03:58 51°14.183 2°49.481 276.1 3.2 259 10.2
2007-05-22 09:04:58 51°14.173 2°49.399 276.5 3.2 260 10.5
2007-05-22 09:05:58 51°14.163 2°49.315 277.5 3.2 261 10.6
2007-05-22 09:06:58 51°14.155 2°49.232 278.1 3.2 261 10.7
2007-05-22 09:07:58 51°14.146 2°49.147 279.4 3.3 260 10.8
2007-05-22 09:08:58 51°14.138 2°49.063 279.7 3.2 262 10.9
2007-05-22 09:09:58 51°14.129 2°48.978 280.7 3.2 261 10.9
2007-05-22 09:10:58 51°14.122 2°48.893 281.3 3.2 261 11
2007-05-22 09:11:58 51°14.115 2°48.809 282 3.2 263 10.8
2007-05-22 09:12:58 51°14.108 2°48.726 282.6 3.2 262 11
2007-05-22 09:13:58 51°14.101 2°48.642 282.2 3.2 261 11.1
2007-05-22 09:14:58 51°14.098 2°48.564 295.9 2.6 269 11.1
2007-05-22 09:15:58 51°14.097 2°48.501 303.4 2.2 267 11
2007-05-22 09:16:58 51°14.097 2°48.445 312.5 2 271 11.1
2007-05-22 09:17:58 51°14.1 2°48.392 320.8 2 279 10.9
2007-05-22 09:18:58 51°14.107 2°48.342 331.4 1.9 288 10.7
2007-05-22 09:19:58 51°14.124 2°48.293 336.7 3 308 11
2007-05-22 09:20:58 51°14.178 2°48.193 324.5 6.7 311 10.9
2007-05-22 09:21:58 51°14.272 2°48.036 324.9 9.5 315 10.9
2007-05-22 09:22:58 51°14.393 2°47.847 325.1 10.9 316 10.6
2007-05-22 09:23:58 51°14.532 2°47.635 325.7 11.9 317 10
2007-05-22 09:24:58 51°14.677 2°47.416 325.1 12.1 316 11.4
2007-05-22 09:25:58 51°14.822 2°47.194 324.6 12.1 315 12.1
2007-05-22 09:26:58 51°14.967 2°46.977 325.8 11.8 318 8.8
2007-05-22 09:27:58 51°15.114 2°46.765 324.7 12.1 317 9.3
2007-05-22 09:28:58 51°15.254 2°46.56 325.2 9.6 316 11.7
2007-05-22 09:29:58 51°15.339 2°46.42 329.4 5.8 317 13.4
2007-05-22 09:30:58 51°15.401 2°46.356 359 3.3 338 14.2
2007-05-22 09:31:58 51°15.436 2°46.347 40.9 1.3 15 14.6
2007-05-22 09:32:58 51°15.441 2°46.368 88.7 1 120 14.3
2007-05-22 09:33:58 51°15.425 2°46.397 104.7 1.7 129 14.3
2007-05-22 09:34:58 51°15.412 2°46.42 95.5 0.9 135 14.1
2007-05-22 09:35:58 51°15.39 2°46.467 119 3.1 138 13.8
2007-05-22 09:36:58 51°15.351 2°46.498 139.3 2.3 166 13.4
2007-05-22 09:37:58 51°15.302 2°46.519 150.9 3.7 169 12.6
2007-05-22 09:38:58 51°15.239 2°46.541 148.5 3.7 162 11.8
2007-05-22 09:39:58 51°15.183 2°46.579 140.3 3.4 154 11
2007-05-22 09:40:58 51°15.139 2°46.613 136.2 2.6 155 10.4
2007-05-22 09:41:58 51°15.101 2°46.64 135.1 2.4 156 9.8
2007-05-22 09:42:58 51°15.067 2°46.665 132 2.3 153 9.4
2007-05-22 09:43:58 51°15.031 2°46.697 129.3 2.6 146 8.9
2007-05-22 09:44:58 51°14.991 2°46.731 138.6 3 157 8.6
2007-05-22 09:45:58 51°14.94 2°46.757 152.7 3.4 165 8.2
2007-05-22 09:46:58 51°14.878 2°46.757 174.1 4 189 8.8
2007-05-22 09:47:58 51°14.816 2°46.721 194.8 3.9 208 9.1
2007-05-22 09:48:58 51°14.766 2°46.665 212.2 3.6 221 9.6
2007-05-22 09:49:58 51°14.725 2°46.596 226.6 3.5 233 10.2
2007-05-22 09:50:58 51°14.694 2°46.519 242.7 3.5 241 10.6
2007-05-22 09:51:58 51°14.67 2°46.437 255.4 3.4 247 10.4
2007-05-22 09:52:58 51°14.653 2°46.353 266.4 3.3 254 10.2
2007-05-22 09:53:58 51°14.641 2°46.269 274.7 3.2 260 9.7
2007-05-22 09:54:58 51°14.634 2°46.187 282.4 3 264 9
2007-05-22 09:55:58 51°14.631 2°46.108 287.6 2.9 267 8.9
2007-05-22 09:56:58 51°14.632 2°46.034 297.6 2.7 277 8.5
2007-05-22 09:57:58 51°14.64 2°45.963 309.5 2.4 281 8.1
2007-05-22 09:58:58 51°14.646 2°45.906 311.7 2 278 7.9
2007-05-22 09:59:58 51°14.647 2°45.857 310.1 1.8 269 7.8
2007-05-22 10:00:58 51°14.646 2°45.812 309.5 2 278 8
2007-05-22 10:01:58 51°14.685 2°45.753 354.4 4.6 348 8.5
2007-05-22 10:02:58 51°14.745 2°45.834 76.4 5.8 83 8.8
2007-05-22 10:03:58 51°14.742 2°46.053 90.7 10.2 89 8.1
2007-05-22 10:04:58 51°14.743 2°46.347 91.1 11.6 91 8.1
2007-05-22 10:05:58 51°14.739 2°46.663 91.4 11.9 92 10.2
2007-05-22 10:06:58 51°14.733 2°46.979 91.7 11.8 92 11.8
2007-05-22 10:07:58 51°14.729 2°47.292 92.1 12 91 11.9
2007-05-22 10:08:58 51°14.727 2°47.614 92.2 12.2 90 11.2
2007-05-22 10:09:58 51°14.722 2°47.935 91.3 12.1 93 10.4
2007-05-22 10:10:58 51°14.722 2°48.256 89.2 12.1 88 10.7
2007-05-22 10:11:58 51°14.727 2°48.576 88.6 12 89 11.2
2007-05-22 10:12:58 51°14.731 2°48.896 89.6 12 89 11.5
2007-05-22 10:13:58 51°14.736 2°49.213 89.3 12 89 11.4
2007-05-22 10:14:58 51°14.74 2°49.53 89.6 12 89 11.3
2007-05-22 10:15:58 51°14.746 2°49.848 90 12.1 88 11.2
2007-05-22 10:16:58 51°14.751 2°50.167 88.6 12 89 11
2007-05-22 10:17:58 51°14.739 2°50.486 99.9 12.1 102 10.8
2007-05-22 10:18:58 51°14.715 2°50.8 90.6 11.8 88 10.3
2007-05-22 10:19:58 51°14.719 2°51.115 88.9 12 89 9.9
2007-05-22 10:20:58 51°14.723 2°51.432 89.2 12 88 9.4
2007-05-22 10:21:58 51°14.725 2°51.753 89.5 12.2 90 9
2007-05-22 10:22:59 51°14.729 2°52.081 90.7 12.2 90 8.8
2007-05-22 10:23:58 51°14.732 2°52.4 89.2 12.3 90 8.4
2007-05-22 10:24:58 51°14.736 2°52.725 88.3 12.3 88 8.2
2007-05-22 10:25:58 51°14.735 2°53.049 90.3 12.2 88 8.1
2007-05-22 10:26:58 51°14.741 2°53.359 88.4 11.1 90 9.1
2007-05-22 10:27:58 51°14.738 2°53.652 93.8 11.2 94 9.5
2007-05-22 10:28:58 51°14.7 2°53.942 103.9 11.3 106 10.3
2007-05-22 10:29:58 51°14.616 2°54.213 117.6 11.4 117 10.1
2007-05-22 10:30:58 51°14.528 2°54.5 113 12.1 113 10.1
2007-05-22 10:31:58 51°14.44 2°54.799 115.9 12.5 115 10
2007-05-22 10:32:58 51°14.342 2°55.089 127 12.9 125 9.7
2007-05-22 10:33:59 51°14.213 2°55.331 136.2 11.3 139 11
2007-05-22 10:34:58 51°14.054 2°55.494 150.3 11.6 150 10.4
2007-05-22 10:35:59 51°13.881 2°55.629 159.6 10.3 158 9.6
2007-05-22 10:36:58 51°13.75 2°55.708 153.2 7.5 146 9.8
2007-05-22 10:37:58 51°13.676 2°55.829 127.3 5.4 123 9.3
2007-05-22 10:38:59 51°13.636 2°55.939 121.8 4.1 119 9.1
2007-05-22 10:39:58 51°13.618 2°56.024 103.2 3 101 9
2007-05-22 10:40:59 51°13.609 2°56.078 114 1.5 114 7.5
2007-05-22 10:41:58 51°13.603 2°56.096 123.9 0.2 138 7.2
2007-05-22 10:42:58 51°13.602 2°56.099 125.8 0.2 66 6.9
2007-05-22 10:43:58 51°13.602 2°56.099 128.8 0.2 88 6.7
2007-05-22 10:44:58 51°13.602 2°56.1 126.3 -999 290 6.5
2007-05-22 10:45:58 51°13.602 2°56.099 126.3 -999 229 6.5
2007-05-22 10:46:58 51°13.603 2°56.1 126.4 -999 160 6.5
2007-05-22 10:47:59 51°13.603 2°56.1 126.3 -999 353 6.6
2007-05-22 10:48:58 51°13.602 2°56.1 126.3 -999 238 6.6
2007-05-22 10:49:59 51°13.602 2°56.1 126.3 -999 183 6.5
2007-05-22 10:50:58 51°13.603 2°56.102 126.4 -999 326 6.5
2007-05-22 10:51:59 51°13.603 2°56.102 126.4 -999 332 6.6
2007-05-22 10:52:58 51°13.603 2°56.102 126.4 -999 266 6.5
2007-05-22 10:53:58 51°13.603 2°56.102 126.4 -999 212 6.6
2007-05-22 10:54:59 51°13.603 2°56.102 126.4 -999 276 6.6
2007-05-22 10:55:58 51°13.606 2°56.102 126.4 -999 7 6.6
2007-05-22 10:56:59 51°13.602 2°56.102 126.5 -999 273 6.6
2007-05-22 10:57:58 51°13.601 2°56.1 126.5 -999 195 6.6
2007-05-22 10:58:59 51°13.603 2°56.101 126.5 -999 195 6.6
2007-05-22 10:59:58 51°13.604 2°56.101 126.5 -999 289 6.6
2007-05-22 11:00:59 51°13.602 2°56.101 126.6 -999 197 6.6
2007-05-22 11:01:58 51°13.604 2°56.102 126.5 -999 354 6.6
2007-05-22 11:02:58 51°13.603 2°56.101 126.4 -999 249 6.6
2007-05-22 11:03:59 51°13.603 2°56.101 126.3 -999 176 6.6
2007-05-22 11:04:58 51°13.605 2°56.103 126.3 -999 258 6.7
2007-05-22 11:05:59 51°13.604 2°56.102 126.2 -999 184 6.6
2007-05-22 11:06:58 51°13.605 2°56.102 126.2 -999 220 6.7
2007-05-22 11:07:58 51°13.603 2°56.1 126.2 -999 161 6.6
2007-05-22 11:08:58 51°13.603 2°56.101 126.1 -999 316 6.7
2007-05-22 11:09:58 51°13.602 2°56.1 126.1 -999 17 6.7
2007-05-22 11:10:59 51°13.602 2°56.099 126 -999 2 6.6
2007-05-22 11:11:59 51°13.603 2°56.1 126 -999 10 -999
2007-05-22 11:12:59 51°13.603 2°56.1 126 -999 16 -999
2007-05-22 11:13:58 51°13.603 2°56.1 125.9 -999 1 6.7
2007-05-22 11:14:59 51°13.602 2°56.1 125.9 -999 207 6.7
2007-05-22 11:15:58 51°13.602 2°56.099 125.9 -999 189 6.7
2007-05-22 11:16:59 51°13.602 2°56.1 125.9 -999 201 -999
2007-05-22 11:17:58 51°13.602 2°56.1 125.8 -999 188 6.7
2007-05-22 11:18:59 51°13.602 2°56.1 125.7 -999 337 -999
2007-05-22 11:19:59 51°13.602 2°56.1 125.7 -999 219 -999
2007-05-22 11:20:59 51°13.602 2°56.1 125.7 0.1 194 53.8
2007-05-22 11:21:59 51°13.602 2°56.1 125.7 0.1 185 6.6
2007-05-22 11:22:58 51°13.603 2°56.1 125.5 -999 313 6.7
2007-05-22 11:23:58 51°13.602 2°56.101 125.5 -999 177 6.7
2007-05-22 11:24:58 51°13.602 2°56.101 125.5 -999 187 6.7
2007-05-22 11:25:58 51°13.602 2°56.102 125.5 -999 341 6.7
2007-05-22 11:26:58 51°13.602 2°56.102 125.4 -999 181 6.7
2007-05-22 11:27:59 51°13.602 2°56.101 125.5 -999 354 6.8
2007-05-22 11:28:59 51°13.602 2°56.101 125.4 -999 332 6.8
2007-05-22 11:29:59 51°13.602 2°56.101 125.3 -999 263 6.8
2007-05-22 11:30:59 51°13.602 2°56.102 125.3 -999 357 6.7
2007-05-22 11:31:59 51°13.602 2°56.101 125.3 -999 201 6.8
2007-05-22 11:32:59 51°13.602 2°56.1 125.3 -999 1 6.8
2007-05-22 11:33:59 51°13.602 2°56.099 125.3 -999 160 6.8
2007-05-22 11:34:59 51°13.601 2°56.099 125.3 -999 183 6.8
2007-05-22 11:35:59 51°13.602 2°56.099 125.3 -999 181 6.7
2007-05-22 11:36:59 51°13.602 2°56.099 125.3 -999 241 -999
2007-05-22 11:37:59 51°13.602 2°56.098 125.4 -999 276 6.8
2007-05-22 11:38:59 51°13.602 2°56.099 125.4 -999 168 6.8
2007-05-22 11:39:59 51°13.603 2°56.099 125.4 -999 50 6.9
2007-05-22 11:40:59 51°13.602 2°56.099 125.4 -999 197 -999
2007-05-22 11:41:59 51°13.602 2°56.098 125.4 -999 186 -999
2007-05-22 11:42:59 51°13.602 2°56.099 125.4 -999 227 -999
2007-05-22 11:43:59 51°13.602 2°56.098 125.4 -999 40 6.8
2007-05-22 11:44:59 51°13.602 2°56.099 125 -999 173 5.2
2007-05-22 11:45:59 51°13.602 2°56.099 126.4 -999 237 6.9
2007-05-22 11:46:59 51°13.602 2°56.1 126.5 -999 127 7.1
2007-05-22 11:47:59 51°13.602 2°56.1 126.7 -999 65 6.9
2007-05-22 11:48:59 51°13.601 2°56.101 126.1 -999 168 6.9
2007-05-22 11:49:59 51°13.601 2°56.101 126.2 -999 171 6.9
2007-05-22 11:50:59 51°13.601 2°56.101 126.8 -999 65 7
2007-05-22 11:51:59 51°13.601 2°56.101 126.3 -999 52 7
2007-05-22 11:52:59 51°13.601 2°56.101 126.2 -999 142 -999
2007-05-22 11:53:59 51°13.601 2°56.099 127.7 0.2 179 7.4
2007-05-22 11:54:59 51°13.601 2°56.101 120.1 0.1 188 7.2
2007-05-22 11:55:59 51°13.603 2°56.086 113.2 1.3 290 8
2007-05-22 11:56:59 51°13.618 2°56.036 117.3 2.7 295 -999
2007-05-22 11:57:59 51°13.64 2°55.959 120.3 3.5 296 -999
2007-05-22 11:58:59 51°13.674 2°55.872 128.6 4.4 306 -999
2007-05-22 11:59:59 51°13.714 2°55.787 131.7 4.1 307 -999
2007-05-22 12:00:59 51°13.762 2°55.705 146.1 4.3 320 -999
2007-05-22 12:01:59 51°13.823 2°55.65 164 4.2 338 -999
2007-05-22 12:02:59 51°13.889 2°55.633 188.2 4 2 -999
2007-05-22 12:03:59 51°13.943 2°55.66 217.8 3 30 -999
2007-05-22 12:04:59 51°13.957 2°55.657 266.9 1.9 274 10
2007-05-22 12:05:59 51°13.992 2°55.56 315.3 5.9 313 10.1
2007-05-22 12:06:59 51°14.096 2°55.443 332.4 8.5 327 11.2
2007-05-22 12:07:59 51°14.224 2°55.328 333.1 9 328 -999
2007-05-22 12:08:59 51°14.33 2°55.153 311.2 10 305 11
2007-05-22 12:09:59 51°14.407 2°54.886 295.4 12 288 10.4
2007-05-22 12:10:59 51°14.459 2°54.561 287.4 13.2 281 10.4
2007-05-22 12:11:59 51°14.5 2°54.21 286.6 13.6 280 10.8
2007-05-22 12:12:59 51°14.541 2°53.859 287.6 13.4 280 9.4
2007-05-22 12:13:59 51°14.561 2°53.506 277.9 13.4 270 8.9
2007-05-22 12:14:59 51°14.57 2°53.153 281 13.5 272 8.2
2007-05-22 12:15:59 51°14.572 2°52.79 278.3 13.7 272 8.5
2007-05-22 12:16:59 51°14.578 2°52.423 278.9 13.9 271 8.7
2007-05-22 12:17:59 51°14.583 2°52.054 278.2 13.9 271 8.9
2007-05-22 12:18:59 51°14.59 2°51.684 279.9 14 271 9.3
2007-05-22 12:19:59 51°14.597 2°51.312 279.4 14.1 271 9.6
2007-05-22 12:20:59 51°14.622 2°50.956 288.8 11.9 279 10.2
2007-05-22 12:21:59 51°14.642 2°50.721 291 7.2 274 10.9
2007-05-22 12:22:59 51°14.628 2°50.57 263.7 5.1 249 11.2
2007-05-22 12:23:59 51°14.587 2°50.469 230.4 4.4 229 11.2
2007-05-22 12:24:59 51°14.538 2°50.37 238.4 5 235 10.9
2007-05-22 12:25:59 51°14.489 2°50.264 238.7 4.8 234 10.7
2007-05-22 12:26:59 51°14.446 2°50.163 241.6 4.4 237 10.9
2007-05-22 12:27:59 51°14.407 2°50.068 245.3 4.1 237 10.8
2007-05-22 12:28:59 51°14.371 2°49.98 244.1 3.8 238 10.7
2007-05-22 12:29:59 51°14.339 2°49.902 247.6 3.3 236 10.7
2007-05-22 12:30:59 51°14.31 2°49.831 248.6 3.1 237 10.7
2007-05-22 12:31:59 51°14.283 2°49.764 249.6 3 238 10.7
2007-05-22 12:32:59 51°14.255 2°49.69 250.4 3.4 240 10.8
2007-05-22 12:33:59 51°14.227 2°49.61 250.8 3.5 241 10.6
2007-05-22 12:34:59 51°14.197 2°49.529 248.9 3.6 240 10.8
2007-05-22 12:35:59 51°14.166 2°49.446 248.9 3.6 241 10.7
2007-05-22 12:36:59 51°14.135 2°49.363 247.4 3.7 237 10.5
2007-05-22 12:37:59 51°14.102 2°49.281 245.9 3.6 238 10.7
2007-05-22 12:38:59 51°14.07 2°49.203 244.5 3.4 236 10.7
2007-05-22 12:39:59 51°14.038 2°49.129 242.2 3.4 234 10.7
2007-05-22 12:40:59 51°14.007 2°49.056 245.7 3.3 236 10.6
2007-05-22 12:41:59 51°13.978 2°48.984 249.7 3.2 239 10.6
2007-05-22 12:42:59 51°13.95 2°48.911 252.7 3.2 240 10.6
2007-05-22 12:43:59 51°13.925 2°48.836 257.6 3.2 243 10.8
2007-05-22 12:44:59 51°13.901 2°48.757 259.4 3.3 245 10.9
2007-05-22 12:45:59 51°13.878 2°48.677 262.3 3.3 247 10.8
2007-05-22 12:46:59 51°13.857 2°48.596 265.3 3.4 250 10.9
2007-05-22 12:47:59 51°13.84 2°48.514 272.2 3.1 253 11
2007-05-22 12:48:59 51°13.827 2°48.436 278.2 3.1 256 11.2
2007-05-22 12:49:59 51°13.819 2°48.353 286.5 3.2 265 11.2
2007-05-22 12:50:59 51°13.815 2°48.274 292.3 2.7 264 11.2
2007-05-22 12:51:59 51°13.809 2°48.21 295.4 2.2 259 11.4
2007-05-22 12:52:59 51°13.801 2°48.158 296.8 1.9 251 11.4
2007-05-22 12:53:59 51°13.791 2°48.115 298.8 1.6 245 11.3
2007-05-22 12:54:59 51°13.781 2°48.074 304.8 2 264 11.3
2007-05-22 12:55:59 51°13.795 2°48.028 349.6 2.1 324 11.4
2007-05-22 12:56:59 51°13.828 2°48.057 57.9 3.2 60 11.3
2007-05-22 12:57:59 51°13.866 2°48.179 64.2 6.6 65 11.5
2007-05-22 12:58:58 51°13.921 2°48.351 63.8 8.6 63 11.5
2007-05-22 12:59:59 51°13.981 2°48.579 70.1 9.5 70 11.3
2007-05-22 13:00:58 51°14.038 2°48.812 69.4 9.5 68 11.3
2007-05-22 13:01:59 51°14.098 2°49.051 69.5 9.7 69 11.2
2007-05-22 13:02:59 51°14.165 2°49.324 69.5 11.6 69 11
2007-05-22 13:03:58 51°14.237 2°49.606 69.4 11.8 68 10.9
2007-05-22 13:04:59 51°14.312 2°49.905 69.2 11.9 68 10.7
2007-05-22 13:05:58 51°14.385 2°50.192 68.9 11.9 68 10.5
2007-05-22 13:06:59 51°14.459 2°50.489 69.4 11.8 68 10.5
2007-05-22 13:07:58 51°14.53 2°50.775 69.2 11.9 69 10.5
2007-05-22 13:08:59 51°14.604 2°51.074 69.8 11.9 68 10.4
2007-05-22 13:09:58 51°14.657 2°51.371 83.3 12 88 10.4
2007-05-22 13:10:59 51°14.66 2°51.699 87.9 12.2 89 10
2007-05-22 13:11:58 51°14.662 2°52.016 86.8 12.2 89 9.8
2007-05-22 13:12:59 51°14.666 2°52.338 86.9 11.8 89 9.5
2007-05-22 13:13:59 51°14.673 2°52.654 86.6 12 88 9.4
2007-05-22 13:14:59 51°14.683 2°52.974 87 12.2 87 9.2
2007-05-22 13:15:59 51°14.694 2°53.296 86.4 12.1 87 9.2
2007-05-22 13:16:58 51°14.69 2°53.615 99.8 12.4 101 10.9
2007-05-22 13:17:59 51°14.636 2°53.933 109 12 110 11.9
2007-05-22 13:18:58 51°14.591 2°54.236 99.6 12 103 11.5
2007-05-22 13:19:59 51°14.522 2°54.539 110.9 12 111 11.3
2007-05-22 13:20:59 51°14.432 2°54.825 119.6 12.2 118 11.3
2007-05-22 13:21:58 51°14.334 2°55.101 119.4 12.4 120 11.2
2007-05-22 13:22:59 51°14.199 2°55.336 141.3 11 143 -999
2007-05-22 13:23:59 51°14.069 2°55.463 154.2 8.3 152 -999
2007-05-22 13:24:59 51°13.946 2°55.557 157.1 8.1 156 11.3
2007-05-22 13:25:59 51°13.845 2°55.631 157 5.8 155 11.3
2007-05-22 13:26:59 51°13.767 2°55.693 145.6 4.8 146 -999
2007-05-22 13:27:59 51°13.71 2°55.783 129.9 4.9 129 -999
2007-05-22 13:28:59 51°13.663 2°55.893 123.9 5.1 122 -999
2007-05-22 13:29:59 51°13.627 2°55.993 111.6 3.7 112 -999
2007-05-22 13:30:59 51°13.614 2°56.062 113.2 2 107 -999
2007-05-22 13:31:59 51°13.603 2°56.095 121.6 0.8 121 -999
2007-05-22 13:32:59 51°13.6 2°56.1 126 0.2 84 -999
2007-05-22 13:33:59 51°13.601 2°56.1 128.8 0.1 278 -999
2007-05-22 13:34:59 51°13.602 2°56.099 124.1 0.1 43 -999